Current | Forecast
Updated: 12:30 AM +04 on April 23, 2019
Observed at Saint Denis, Reunion Island
Temperature 24°C
Humidity 89%
Dew Point 22°C
Wind South at 9 km/h
Pressure 1013 hPa (Steady)
Conditions Mostly Cloudy
Visibility 10.0 kilometers
UV 0 out of 16
Clouds (FEW) : 1249 m
Mostly Cloudy (BKN) : 2987 m
Yesterday's Maximum 30°C
Yesterday's Minimum 23°C approx.
Yesterday's Cooling Degree Days 15 approx.
Sunrise6:31 AM +04
Sunset6:00 PM +04
Moon Rise9:25 PM +04
Moon Set10:08 AM +04
Moon PhaseMoon Phase
Waning Gibbous
Raw METARMETAR FMEE 222030Z AUTO 18005KT 9999 FEW041/// BKN098/// ///CB 24/22 Q1013 TEMPO 1000 TSRA



Units: English | Metric

Find the Weather for any City, State or Zipcode, or Country:

U.S. State List | Severe Weather | Tropical Storms | Ski Conditions
United States | Canada | Central America | South America | Asia | Europe | Australia | Africa | Islands

Weather Underground

© Copyright 2019
The Weather Company, LLC